createdAt,value
2019-01-08T00:00:08.627Z,1006.67
2019-01-08T00:01:08.610Z,1006.61
2019-01-08T00:02:08.607Z,1006.65
2019-01-08T00:03:08.594Z,1006.58
2019-01-08T00:04:08.585Z,1006.55
2019-01-08T00:05:08.571Z,1006.56
2019-01-08T00:06:08.562Z,1006.50
2019-01-08T00:07:08.557Z,1006.41
2019-01-08T00:08:08.541Z,1006.43
2019-01-08T00:09:08.531Z,1006.45
2019-01-08T00:10:08.515Z,1006.38
2019-01-08T00:11:08.510Z,1006.33
2019-01-08T00:12:08.527Z,1006.30
2019-01-08T00:13:08.488Z,1006.32
2019-01-08T00:14:08.477Z,1006.29
2019-01-08T00:15:08.466Z,1006.25
2019-01-08T00:16:08.451Z,1006.32
2019-01-08T00:17:08.445Z,1006.29
2019-01-08T00:18:08.438Z,1006.27
2019-01-08T00:19:08.419Z,1006.18
2019-01-08T00:20:08.432Z,1006.24
2019-01-08T00:21:08.404Z,1006.07
2019-01-08T00:22:08.397Z,1006.11
2019-01-08T00:23:08.391Z,1006.02
2019-01-08T00:24:08.365Z,1006.06
2019-01-08T00:25:08.362Z,1006.00
2019-01-08T00:26:08.350Z,1005.99
2019-01-08T00:27:08.350Z,1005.99
2019-01-08T00:28:08.335Z,1005.92
2019-01-08T00:29:08.318Z,1005.92
2019-01-08T00:30:08.302Z,1005.85
2019-01-08T00:31:08.297Z,1005.86
2019-01-08T00:32:08.282Z,1005.86
2019-01-08T00:33:08.270Z,1005.75
2019-01-08T00:34:08.275Z,1005.79
2019-01-08T00:35:08.254Z,1005.73
2019-01-08T00:36:08.240Z,1005.77
2019-01-08T00:37:08.227Z,1005.70
2019-01-08T00:38:08.222Z,1005.69
2019-01-08T00:39:08.220Z,1005.66
2019-01-08T00:40:08.195Z,1005.62
2019-01-08T00:41:08.191Z,1005.62
2019-01-08T00:42:08.195Z,1005.50
2019-01-08T00:43:08.170Z,1005.60
2019-01-08T00:44:08.159Z,1005.61
2019-01-08T00:45:08.148Z,1005.55
2019-01-08T00:46:08.131Z,1005.50
2019-01-08T00:47:08.127Z,1005.46
2019-01-08T00:48:08.121Z,1005.45
2019-01-08T00:49:08.103Z,1005.38
2019-01-08T00:50:08.101Z,1005.30
2019-01-08T00:51:08.078Z,1005.33
2019-01-08T00:52:08.067Z,1005.30
2019-01-08T00:53:08.065Z,1005.31
2019-01-08T00:54:08.061Z,1005.36
2019-01-08T00:55:08.035Z,1005.28
2019-01-08T00:56:08.025Z,1005.24
2019-01-08T00:57:08.022Z,1005.23
2019-01-08T00:58:08.016Z,1005.24
2019-01-08T00:59:07.993Z,1005.28
2019-01-08T01:00:07.991Z,1005.20
2019-01-08T01:01:07.970Z,1005.17
2019-01-08T01:02:07.967Z,1005.17
2019-01-08T01:03:07.967Z,1005.12
2019-01-08T01:04:07.979Z,1005.17
2019-01-08T01:05:08.031Z,1005.06
2019-01-08T01:06:07.923Z,1005.09
2019-01-08T01:07:07.908Z,1005.06
2019-01-08T01:08:07.903Z,1004.99
2019-01-08T01:09:07.892Z,1005.02
2019-01-08T01:10:07.917Z,1004.99
2019-01-08T01:11:07.866Z,1004.96
2019-01-08T01:12:07.862Z,1004.96
2019-01-08T01:13:07.871Z,1004.96
2019-01-08T01:14:07.838Z,1004.91
2019-01-08T01:15:07.830Z,1004.92
2019-01-08T01:16:07.843Z,1004.80
2019-01-08T01:17:07.808Z,1004.79
2019-01-08T01:18:07.793Z,1004.77
2019-01-08T01:19:07.787Z,1004.66
2019-01-08T01:20:07.768Z,1004.65
2019-01-08T01:21:07.758Z,1004.58
2019-01-08T01:22:07.758Z,1004.66
2019-01-08T01:23:07.737Z,1004.64
2019-01-08T01:24:07.732Z,1004.57
2019-01-08T01:25:07.721Z,1004.54
2019-01-08T01:26:07.710Z,1004.52
2019-01-08T01:27:07.704Z,1004.53
2019-01-08T01:28:07.688Z,1004.51
2019-01-08T01:29:07.680Z,1004.48
2019-01-08T01:30:07.667Z,1004.43
2019-01-08T01:31:07.653Z,1004.35
2019-01-08T01:32:07.641Z,1004.30
2019-01-08T01:33:07.643Z,1004.32
2019-01-08T01:34:07.620Z,1004.22
2019-01-08T01:35:07.614Z,1004.22
2019-01-08T01:36:07.600Z,1004.15
2019-01-08T01:37:07.594Z,1004.15
2019-01-08T01:38:07.590Z,1004.14
2019-01-08T01:39:07.570Z,1004.13
2019-01-08T01:40:07.555Z,1004.09
2019-01-08T01:41:07.547Z,1004.12
2019-01-08T01:42:07.535Z,1004.08
2019-01-08T01:43:07.534Z,1004.09
2019-01-08T01:44:07.526Z,1004.05
2019-01-08T01:45:07.502Z,1004.06
2019-01-08T01:46:07.497Z,1004.04
2019-01-08T01:47:07.485Z,1003.97
2019-01-08T01:48:07.476Z,1003.94
2019-01-08T01:49:07.477Z,1003.90
2019-01-08T01:50:07.454Z,1003.92
2019-01-08T01:51:07.445Z,1003.90
2019-01-08T01:52:07.442Z,1003.88
2019-01-08T01:53:07.424Z,1003.89
2019-01-08T01:54:07.406Z,1003.83
2019-01-08T01:55:07.420Z,1003.78
2019-01-08T01:56:07.390Z,1003.76
2019-01-08T01:57:07.382Z,1003.75
2019-01-08T01:58:07.365Z,1003.74
2019-01-08T01:59:08.634Z,1003.65
2019-01-08T02:00:07.341Z,1003.65
2019-01-08T02:01:07.349Z,1003.59
2019-01-08T02:02:07.322Z,1003.56
2019-01-08T02:03:07.315Z,1003.59
2019-01-08T02:04:07.301Z,1003.43
2019-01-08T02:05:07.290Z,1003.49
2019-01-08T02:06:07.317Z,1003.55
2019-01-08T02:07:07.272Z,1003.60
2019-01-08T02:08:07.255Z,1003.62
2019-01-08T02:09:07.251Z,1003.56
2019-01-08T02:10:07.281Z,1003.52
2019-01-08T02:11:07.229Z,1003.45
2019-01-08T02:12:07.232Z,1003.37
2019-01-08T02:13:07.203Z,1003.36
2019-01-08T02:14:07.192Z,1003.42
2019-01-08T02:15:07.180Z,1003.35
2019-01-08T02:16:07.177Z,1003.31
2019-01-08T02:17:07.166Z,1003.29
2019-01-08T02:18:07.162Z,1003.32
2019-01-08T02:19:07.144Z,1003.31
2019-01-08T02:20:07.132Z,1003.28
2019-01-08T02:21:07.124Z,1003.25
2019-01-08T02:22:07.140Z,1003.26
2019-01-08T02:23:07.103Z,1003.20
2019-01-08T02:24:07.090Z,1003.15
2019-01-08T02:25:07.077Z,1003.19
2019-01-08T02:26:07.069Z,1003.12
2019-01-08T02:27:07.062Z,1003.02
2019-01-08T02:28:07.087Z,1003.02
2019-01-08T02:29:07.031Z,1003.00
2019-01-08T02:30:07.026Z,1003.02
2019-01-08T02:31:07.010Z,1003.05
2019-01-08T02:32:07.004Z,1003.03
2019-01-08T02:33:07.000Z,1003.03
2019-01-08T02:34:07.039Z,1003.01
2019-01-08T02:35:06.972Z,1002.98
2019-01-08T02:36:06.963Z,1002.78
2019-01-08T02:37:06.949Z,1002.71
2019-01-08T02:38:06.940Z,1002.76
2019-01-08T02:39:06.930Z,1002.73
2019-01-08T02:40:06.927Z,1002.83
2019-01-08T02:41:06.937Z,1002.88
2019-01-08T02:42:06.900Z,1002.92
2019-01-08T02:43:06.891Z,1002.79
2019-01-08T02:44:07.010Z,1002.78
2019-01-08T02:45:06.857Z,1002.79
2019-01-08T02:46:07.089Z,1002.74
2019-01-08T02:47:06.847Z,1002.64
2019-01-08T02:48:06.832Z,1002.64
2019-01-08T02:49:06.817Z,1002.68
2019-01-08T02:50:06.812Z,1002.66
2019-01-08T02:51:06.810Z,1002.59
2019-01-08T02:52:06.791Z,1002.65
2019-01-08T02:53:06.774Z,1002.57
2019-01-08T02:54:06.763Z,1002.50
2019-01-08T02:55:06.755Z,1002.52
2019-01-08T02:56:06.741Z,1002.50
2019-01-08T02:57:06.742Z,1002.53
2019-01-08T02:58:06.717Z,1002.43
2019-01-08T02:59:06.722Z,1002.43
2019-01-08T03:00:06.702Z,1002.41
2019-01-08T03:01:06.687Z,1002.44
2019-01-08T03:02:06.711Z,1002.38
2019-01-08T03:03:06.669Z,1002.32
2019-01-08T03:04:06.663Z,1002.37
2019-01-08T03:05:06.642Z,1002.42
2019-01-08T03:06:06.632Z,1002.24
2019-01-08T03:07:06.624Z,1002.29
2019-01-08T03:08:06.619Z,1002.18
2019-01-08T03:09:06.604Z,1002.25
2019-01-08T03:10:06.590Z,1002.18
2019-01-08T03:11:06.578Z,1002.13
2019-01-08T03:12:06.572Z,1002.12
2019-01-08T03:13:06.570Z,1002.10
2019-01-08T03:14:06.551Z,1002.09
2019-01-08T03:15:06.541Z,1002.07
2019-01-08T03:16:06.530Z,1002.05
2019-01-08T03:17:06.519Z,1002.06
2019-01-08T03:18:06.518Z,1002.00
2019-01-08T03:19:06.535Z,1002.01
2019-01-08T03:20:06.487Z,1001.90
2019-01-08T03:21:06.470Z,1002.00
2019-01-08T03:22:06.458Z,1001.94
2019-01-08T03:23:06.454Z,1001.98
2019-01-08T03:24:06.448Z,1001.92
2019-01-08T03:25:06.440Z,1001.87
2019-01-08T03:26:06.439Z,1001.76
2019-01-08T03:27:14.273Z,1001.82
2019-01-08T03:28:06.395Z,1001.82
2019-01-08T03:29:06.427Z,1001.76
2019-01-08T03:30:06.373Z,1001.71
2019-01-08T03:31:06.363Z,1001.69
2019-01-08T03:32:06.358Z,1001.68
2019-01-08T03:33:06.345Z,1001.65
2019-01-08T03:34:06.330Z,1001.62
2019-01-08T03:35:06.356Z,1001.62
2019-01-08T03:36:06.309Z,1001.60
2019-01-08T03:37:06.297Z,1001.62
2019-01-08T03:38:06.292Z,1001.53
2019-01-08T03:39:06.280Z,1001.49
2019-01-08T03:40:06.273Z,1001.47
2019-01-08T03:41:06.266Z,1001.40
2019-01-08T03:42:06.252Z,1001.36
2019-01-08T03:43:06.238Z,1001.36
2019-01-08T03:44:06.222Z,1001.31
2019-01-08T03:45:06.215Z,1001.37
2019-01-08T03:46:06.207Z,1001.34
2019-01-08T03:47:06.200Z,1001.30
2019-01-08T03:48:06.183Z,1001.25
2019-01-08T03:49:06.171Z,1001.28
2019-01-08T03:50:06.162Z,1001.19
2019-01-08T03:51:06.161Z,1001.24
2019-01-08T03:52:06.134Z,1001.20
2019-01-08T03:53:06.130Z,1001.18
2019-01-08T03:54:06.128Z,1001.15
2019-01-08T03:55:06.105Z,1001.12
2019-01-08T03:56:06.108Z,1001.11
2019-01-08T03:57:06.085Z,1001.11
2019-01-08T03:58:06.072Z,1001.08
2019-01-08T03:59:06.064Z,1001.00
2019-01-08T04:00:06.064Z,1001.01
2019-01-08T04:01:06.046Z,1000.97
2019-01-08T04:02:06.031Z,1000.92
2019-01-08T04:03:06.020Z,1000.89
2019-01-08T04:04:06.051Z,1000.84
2019-01-08T04:05:05.995Z,1000.86
2019-01-08T04:06:05.984Z,1000.85
2019-01-08T04:07:05.982Z,1000.83
2019-01-08T04:08:05.968Z,1000.80
2019-01-08T04:09:05.957Z,1000.84
2019-01-08T04:10:05.983Z,1000.86
2019-01-08T04:11:05.934Z,1000.84
2019-01-08T04:12:05.920Z,1000.79
2019-01-08T04:13:05.916Z,1000.80
2019-01-08T04:14:05.896Z,1000.82
2019-01-08T04:15:05.888Z,1000.80
2019-01-08T04:16:05.894Z,1000.76
2019-01-08T04:17:05.869Z,1000.77
2019-01-08T04:18:05.861Z,1000.74
2019-01-08T04:19:05.854Z,1000.71
2019-01-08T04:20:05.869Z,1000.69
2019-01-08T04:21:05.828Z,1000.68
2019-01-08T04:22:05.814Z,1000.65
2019-01-08T04:23:05.804Z,1000.64
2019-01-08T04:24:05.796Z,1000.59
2019-01-08T04:25:05.784Z,1000.55
2019-01-08T04:26:05.786Z,1000.55
2019-01-08T04:27:05.763Z,1000.60
2019-01-08T04:28:05.750Z,1000.54
2019-01-08T04:29:05.748Z,1000.47
2019-01-08T04:30:05.725Z,1000.48
2019-01-08T04:31:05.740Z,1000.48
2019-01-08T04:32:05.710Z,1000.51
2019-01-08T04:33:05.698Z,1000.46
2019-01-08T04:34:05.693Z,1000.51
2019-01-08T04:35:05.672Z,1000.48
2019-01-08T04:36:05.671Z,1000.45
2019-01-08T04:37:05.656Z,1000.46
2019-01-08T04:38:05.648Z,1000.47
2019-01-08T04:39:05.637Z,1000.43
2019-01-08T04:40:05.624Z,1000.32
2019-01-08T04:41:05.689Z,1000.36
2019-01-08T04:42:05.608Z,1000.27
2019-01-08T04:43:05.590Z,1000.25
2019-01-08T04:44:05.583Z,1000.28
2019-01-08T04:45:05.565Z,1000.20
2019-01-08T04:46:05.557Z,1000.16
2019-01-08T04:47:05.556Z,1000.09
2019-01-08T04:48:05.541Z,1000.09
2019-01-08T04:49:05.520Z,1000.09
2019-01-08T04:50:05.516Z,1000.00
2019-01-08T04:51:05.499Z,999.97
2019-01-08T04:52:05.505Z,999.97
2019-01-08T04:53:05.478Z,999.94
2019-01-08T04:54:05.470Z,999.86
2019-01-08T04:55:05.455Z,999.85
2019-01-08T04:56:05.454Z,999.85
2019-01-08T04:57:05.435Z,999.83
2019-01-08T04:58:05.456Z,999.73
2019-01-08T04:59:05.417Z,999.67
2019-01-08T05:00:05.417Z,999.67
2019-01-08T05:01:05.391Z,999.61
2019-01-08T05:02:05.380Z,999.68
2019-01-08T05:03:05.380Z,999.67
2019-01-08T05:04:05.367Z,999.63
2019-01-08T05:05:05.353Z,999.64
2019-01-08T05:06:05.345Z,999.62
2019-01-08T05:07:05.331Z,999.49
2019-01-08T05:08:05.325Z,999.46
2019-01-08T05:09:05.305Z,999.42
2019-01-08T05:10:05.351Z,999.42
2019-01-08T05:11:05.284Z,999.44
2019-01-08T05:12:05.286Z,999.32
2019-01-08T05:13:05.267Z,999.27
2019-01-08T05:14:05.255Z,999.22
2019-01-08T05:15:05.241Z,999.15
2019-01-08T05:16:05.241Z,999.13
2019-01-08T05:17:05.228Z,999.13
2019-01-08T05:18:05.223Z,999.06
2019-01-08T05:19:05.196Z,999.06
2019-01-08T05:20:05.193Z,999.07
2019-01-08T05:21:05.177Z,999.01
2019-01-08T05:22:05.171Z,998.97
2019-01-08T05:23:05.161Z,999.01
2019-01-08T05:24:05.156Z,998.97
2019-01-08T05:25:05.137Z,999.03
2019-01-08T05:26:05.122Z,999.02
2019-01-08T05:27:05.125Z,998.98
2019-01-08T05:28:05.144Z,999.02
2019-01-08T05:29:05.099Z,998.92
2019-01-08T05:30:08.147Z,998.99
2019-01-08T05:31:05.067Z,998.97
2019-01-08T05:32:05.056Z,998.98
2019-01-08T05:33:05.062Z,999.00
2019-01-08T05:34:05.083Z,998.96
2019-01-08T05:35:05.030Z,998.89
2019-01-08T05:36:05.013Z,998.95
2019-01-08T05:37:05.015Z,998.88
2019-01-08T05:38:04.999Z,998.86
2019-01-08T05:39:04.997Z,998.87
2019-01-08T05:40:04.978Z,998.88
2019-01-08T05:41:04.966Z,998.83
2019-01-08T05:42:04.953Z,998.85
2019-01-08T05:43:04.944Z,998.85
2019-01-08T05:44:04.943Z,998.81
2019-01-08T05:45:04.915Z,998.82
2019-01-08T05:46:04.909Z,998.77
2019-01-08T05:47:04.900Z,998.72
2019-01-08T05:48:04.884Z,998.73
2019-01-08T05:49:04.911Z,998.64
2019-01-08T05:50:04.867Z,998.68
2019-01-08T05:51:04.857Z,998.59
2019-01-08T05:52:04.840Z,998.57
2019-01-08T05:53:04.835Z,998.58
2019-01-08T05:54:04.897Z,998.54
2019-01-08T05:55:04.849Z,998.57
2019-01-08T05:56:04.803Z,998.53
2019-01-08T05:57:04.796Z,998.47
2019-01-08T05:58:04.776Z,998.52
2019-01-08T05:59:04.777Z,998.39
2019-01-08T06:00:04.767Z,998.46
2019-01-08T06:01:04.758Z,998.43
2019-01-08T06:02:04.741Z,998.39
2019-01-08T06:03:04.727Z,998.38
2019-01-08T06:04:04.710Z,998.44
2019-01-08T06:05:04.721Z,998.43
2019-01-08T06:06:04.691Z,998.36
2019-01-08T06:07:04.686Z,998.34
2019-01-08T06:08:04.733Z,998.33
2019-01-08T06:09:04.662Z,998.26
2019-01-08T06:10:04.645Z,998.23
2019-01-08T06:11:04.646Z,998.19
2019-01-08T06:12:04.628Z,998.17
2019-01-08T06:13:04.641Z,998.19
2019-01-08T06:14:04.616Z,998.12
2019-01-08T06:15:04.597Z,998.14
2019-01-08T06:16:04.580Z,998.15
2019-01-08T06:17:04.570Z,998.15
2019-01-08T06:18:04.563Z,998.16
2019-01-08T06:19:04.563Z,998.09
2019-01-08T06:20:04.555Z,998.13
2019-01-08T06:21:04.528Z,998.10
2019-01-08T06:22:04.522Z,998.08
2019-01-08T06:23:04.511Z,998.09
2019-01-08T06:24:04.497Z,998.06
2019-01-08T06:25:04.491Z,998.03
2019-01-08T06:26:04.506Z,998.07
2019-01-08T06:27:04.469Z,998.04
2019-01-08T06:28:04.470Z,998.03
2019-01-08T06:29:04.443Z,998.01
2019-01-08T06:30:04.434Z,998.03
2019-01-08T06:31:04.448Z,997.96
2019-01-08T06:32:04.429Z,997.88
2019-01-08T06:33:04.402Z,997.85
2019-01-08T06:34:04.393Z,997.86
2019-01-08T06:35:04.400Z,997.79
2019-01-08T06:36:04.370Z,997.80
2019-01-08T06:37:04.362Z,997.74
2019-01-08T06:38:04.356Z,997.65
2019-01-08T06:39:04.341Z,997.63
2019-01-08T06:40:04.332Z,997.68
2019-01-08T06:41:04.320Z,997.63
2019-01-08T06:42:04.308Z,997.57
2019-01-08T06:43:04.325Z,997.60
2019-01-08T06:44:04.282Z,997.54
2019-01-08T06:45:04.277Z,997.50
2019-01-08T06:46:04.273Z,997.48
2019-01-08T06:47:04.249Z,997.52
2019-01-08T06:48:04.245Z,997.53
2019-01-08T06:49:04.237Z,997.45
2019-01-08T06:50:04.221Z,997.44
2019-01-08T06:51:04.210Z,997.39
2019-01-08T06:52:04.205Z,997.40
2019-01-08T06:53:04.194Z,997.34
2019-01-08T06:54:04.187Z,997.38
2019-01-08T06:55:04.169Z,997.28
2019-01-08T06:56:04.157Z,997.34
2019-01-08T06:57:04.145Z,997.25
2019-01-08T06:58:04.137Z,997.26
2019-01-08T06:59:04.133Z,997.29
2019-01-08T07:00:04.112Z,997.21
2019-01-08T07:01:04.128Z,997.17
2019-01-08T07:02:04.085Z,997.07
2019-01-08T07:03:04.096Z,997.14
2019-01-08T07:04:04.109Z,997.16
2019-01-08T07:05:04.058Z,997.20
2019-01-08T07:06:04.055Z,997.19
2019-01-08T07:07:04.038Z,997.19
2019-01-08T07:08:04.022Z,997.09
2019-01-08T07:09:04.011Z,997.10
2019-01-08T07:10:04.018Z,997.15
2019-01-08T07:11:03.995Z,997.14
2019-01-08T07:12:03.982Z,997.03
2019-01-08T07:13:03.969Z,997.04
2019-01-08T07:14:04.053Z,996.99
2019-01-08T07:15:03.952Z,996.97
2019-01-08T07:16:03.941Z,997.07
2019-01-08T07:17:03.924Z,997.06
2019-01-08T07:18:03.918Z,997.01
2019-01-08T07:19:03.923Z,996.89
2019-01-08T07:20:03.905Z,996.95
2019-01-08T07:21:03.886Z,997.00
2019-01-08T07:22:03.876Z,996.83
2019-01-08T07:23:03.866Z,996.78
2019-01-08T07:24:03.857Z,996.76
2019-01-08T07:25:03.879Z,996.79
2019-01-08T07:26:03.834Z,996.73
2019-01-08T07:27:03.825Z,996.79
2019-01-08T07:28:03.809Z,996.76
2019-01-08T07:29:03.802Z,996.73
2019-01-08T07:30:03.799Z,996.64
2019-01-08T07:31:03.783Z,996.59
2019-01-08T07:32:03.767Z,996.58
2019-01-08T07:33:03.769Z,996.60
2019-01-08T07:34:03.742Z,996.60
2019-01-08T07:35:03.737Z,996.61
2019-01-08T07:36:03.742Z,996.61
2019-01-08T07:37:03.720Z,996.61
2019-01-08T07:38:03.701Z,996.60
2019-01-08T07:39:03.694Z,996.54
2019-01-08T07:40:03.680Z,996.53
2019-01-08T07:41:03.707Z,996.49
2019-01-08T07:42:03.659Z,996.42
2019-01-08T07:43:03.652Z,996.36
2019-01-08T07:44:03.635Z,996.35
2019-01-08T07:45:03.630Z,996.43
2019-01-08T07:46:03.622Z,996.32
2019-01-08T07:47:03.616Z,996.30
2019-01-08T07:48:03.594Z,996.24
2019-01-08T07:49:03.597Z,996.25
2019-01-08T07:50:03.576Z,996.21
2019-01-08T07:51:03.566Z,996.13
2019-01-08T07:52:03.580Z,996.15
2019-01-08T07:53:03.545Z,996.12
2019-01-08T07:54:03.539Z,996.03
2019-01-08T07:55:03.520Z,995.98
2019-01-08T07:56:03.513Z,995.97
2019-01-08T07:57:03.508Z,995.94
2019-01-08T07:58:03.486Z,995.89
2019-01-08T07:59:03.478Z,995.90
2019-01-08T08:00:03.478Z,995.85
2019-01-08T08:01:03.460Z,995.88
2019-01-08T08:02:03.455Z,995.84
2019-01-08T08:03:03.432Z,995.92
2019-01-08T08:04:03.422Z,995.83
2019-01-08T08:05:03.454Z,995.80
2019-01-08T08:06:03.407Z,995.79
2019-01-08T08:07:03.390Z,995.79
2019-01-08T08:08:03.383Z,995.74
2019-01-08T08:09:03.368Z,995.74
2019-01-08T08:10:03.362Z,995.67
2019-01-08T08:11:03.372Z,995.66
2019-01-08T08:12:03.347Z,995.62
2019-01-08T08:13:03.325Z,995.62
2019-01-08T08:14:03.318Z,995.58
2019-01-08T08:15:03.318Z,995.60
2019-01-08T08:16:03.294Z,995.61
2019-01-08T08:17:03.299Z,995.56
2019-01-08T08:18:03.270Z,995.49
2019-01-08T08:19:03.262Z,995.58
2019-01-08T08:20:03.251Z,995.57
2019-01-08T08:21:03.251Z,995.54
2019-01-08T08:22:03.239Z,995.47
2019-01-08T08:23:03.223Z,995.47
2019-01-08T08:24:03.211Z,995.49
2019-01-08T08:25:03.200Z,995.42
2019-01-08T08:26:03.184Z,995.38
2019-01-08T08:27:03.189Z,995.40
2019-01-08T08:28:03.167Z,995.38
2019-01-08T08:29:03.158Z,995.39
2019-01-08T08:30:03.140Z,995.38
2019-01-08T08:31:03.133Z,995.37
2019-01-08T08:32:03.131Z,995.36
2019-01-08T08:33:03.124Z,995.35
2019-01-08T08:34:03.105Z,995.36
2019-01-08T08:35:08.412Z,995.34
2019-01-08T08:36:04.079Z,995.32
2019-01-08T08:37:03.064Z,995.33
2019-01-08T08:38:03.062Z,995.26
2019-01-08T08:39:03.048Z,995.21
2019-01-08T08:40:03.041Z,995.17
2019-01-08T08:41:03.029Z,995.14
2019-01-08T08:42:03.015Z,995.17
2019-01-08T08:43:03.016Z,995.10
2019-01-08T08:44:02.992Z,995.13
2019-01-08T08:45:02.985Z,995.14
2019-01-08T08:46:02.980Z,995.04
2019-01-08T08:47:02.973Z,995.05
2019-01-08T08:48:02.978Z,995.05
2019-01-08T08:49:02.941Z,995.04
2019-01-08T08:50:02.931Z,995.02
2019-01-08T08:51:02.919Z,994.99
2019-01-08T08:52:02.904Z,994.91
2019-01-08T08:53:02.904Z,994.87
2019-01-08T08:54:02.895Z,994.80
2019-01-08T08:55:02.870Z,994.85
2019-01-08T08:56:02.865Z,994.85
2019-01-08T08:57:02.854Z,994.81
2019-01-08T08:58:02.844Z,994.75
2019-01-08T08:59:02.860Z,994.79
2019-01-08T09:00:02.818Z,994.73
2019-01-08T09:01:07.136Z,994.69
2019-01-08T09:02:02.795Z,994.73
2019-01-08T09:03:02.795Z,994.62
2019-01-08T09:04:02.801Z,994.62
2019-01-08T09:05:02.768Z,994.54
2019-01-08T09:06:02.752Z,994.65
2019-01-08T09:07:02.746Z,994.59
2019-01-08T09:08:02.733Z,994.61
2019-01-08T09:09:02.725Z,994.45
2019-01-08T09:10:02.746Z,994.48
2019-01-08T09:11:02.696Z,994.45
2019-01-08T09:12:02.686Z,994.41
2019-01-08T09:13:02.681Z,994.38
2019-01-08T09:14:02.675Z,994.37
2019-01-08T09:15:02.660Z,994.21
2019-01-08T09:16:02.653Z,994.39
2019-01-08T09:17:02.632Z,994.31
2019-01-08T09:18:02.622Z,994.35
2019-01-08T09:19:02.621Z,994.27
2019-01-08T09:20:02.616Z,994.29
2019-01-08T09:21:02.614Z,994.22
2019-01-08T09:22:02.674Z,994.22
2019-01-08T09:23:02.570Z,994.22
2019-01-08T09:24:02.557Z,994.14
2019-01-08T09:25:02.547Z,994.13
2019-01-08T09:26:02.541Z,994.14
2019-01-08T09:27:09.587Z,994.14
2019-01-08T09:28:02.515Z,994.14
2019-01-08T09:29:02.507Z,994.05
2019-01-08T09:30:02.500Z,994.05
2019-01-08T09:31:02.490Z,994.05
2019-01-08T09:32:02.494Z,994.02
2019-01-08T09:33:02.466Z,993.99
2019-01-08T09:34:02.456Z,994.00
2019-01-08T09:35:02.446Z,994.01
2019-01-08T09:36:02.437Z,993.89
2019-01-08T09:37:02.420Z,993.93
2019-01-08T09:38:02.423Z,993.82
2019-01-08T09:39:02.397Z,993.88
2019-01-08T09:40:02.393Z,993.78
2019-01-08T09:41:02.381Z,993.79
2019-01-08T09:42:02.377Z,993.74
2019-01-08T09:43:02.364Z,993.75
2019-01-08T09:44:02.344Z,993.68
2019-01-08T09:45:02.332Z,993.66
2019-01-08T09:46:02.327Z,993.67
2019-01-08T09:47:02.317Z,993.66
2019-01-08T09:48:02.318Z,993.58
2019-01-08T09:49:02.291Z,993.63
2019-01-08T09:50:02.286Z,993.49
2019-01-08T09:51:02.270Z,993.50
2019-01-08T09:52:02.275Z,993.57
2019-01-08T09:53:02.263Z,993.47
2019-01-08T09:54:02.236Z,993.54
2019-01-08T09:55:02.242Z,993.46
2019-01-08T09:56:02.214Z,993.45
2019-01-08T09:57:02.210Z,993.41
2019-01-08T09:58:02.210Z,993.46
2019-01-08T09:59:02.187Z,993.47
2019-01-08T10:00:02.186Z,993.44
2019-01-08T10:01:02.162Z,993.32
2019-01-08T10:02:02.157Z,993.42
2019-01-08T10:03:02.152Z,993.39
2019-01-08T10:04:02.179Z,993.39
2019-01-08T10:05:02.119Z,993.35
2019-01-08T10:06:02.109Z,993.36
2019-01-08T10:07:02.095Z,993.40
2019-01-08T10:08:02.084Z,993.31
2019-01-08T10:09:02.075Z,993.29
2019-01-08T10:10:02.078Z,993.22
2019-01-08T10:11:02.060Z,993.25
2019-01-08T10:12:02.043Z,993.18
2019-01-08T10:13:02.034Z,993.22
2019-01-08T10:14:02.020Z,993.19
2019-01-08T10:15:02.023Z,993.10
2019-01-08T10:16:02.129Z,993.13
2019-01-08T10:17:01.992Z,993.07
2019-01-08T10:18:01.981Z,993.01
2019-01-08T10:19:01.969Z,993.05
2019-01-08T10:20:01.956Z,992.97
2019-01-08T10:21:01.951Z,992.96
2019-01-08T10:22:01.949Z,992.86
2019-01-08T10:23:09.888Z,992.81
2019-01-08T10:24:02.919Z,992.79
2019-01-08T10:25:02.002Z,992.80
2019-01-08T10:26:01.889Z,992.81
2019-01-08T10:27:01.893Z,992.84
2019-01-08T10:28:01.868Z,992.85
2019-01-08T10:29:01.858Z,992.63
2019-01-08T10:30:01.862Z,992.66
2019-01-08T10:31:01.843Z,992.61
2019-01-08T10:32:01.837Z,992.63
2019-01-08T10:33:01.818Z,992.59
2019-01-08T10:34:01.804Z,992.61
2019-01-08T10:35:01.822Z,992.58
2019-01-08T10:36:01.787Z,992.55
2019-01-08T10:37:01.816Z,992.53
2019-01-08T10:38:01.762Z,992.53
2019-01-08T10:39:01.750Z,992.55
2019-01-08T10:40:01.842Z,992.48
2019-01-08T10:41:01.734Z,992.55
2019-01-08T10:42:01.732Z,992.57
2019-01-08T10:43:01.715Z,992.54
2019-01-08T10:44:01.696Z,992.44
2019-01-08T10:45:01.689Z,992.39
2019-01-08T10:46:01.678Z,992.43
2019-01-08T10:47:01.669Z,992.45
2019-01-08T10:48:01.678Z,992.48
2019-01-08T10:49:01.648Z,992.47
2019-01-08T10:50:01.631Z,992.47
2019-01-08T10:51:01.622Z,992.36
2019-01-08T10:52:02.437Z,992.35
2019-01-08T10:53:01.605Z,992.34
2019-01-08T10:54:01.599Z,992.33
2019-01-08T10:55:01.577Z,992.25
2019-01-08T10:56:01.571Z,992.25
2019-01-08T10:57:01.557Z,992.23
2019-01-08T10:58:01.550Z,992.39
2019-01-08T10:59:07.521Z,992.14
2019-01-08T11:00:02.534Z,992.18
2019-01-08T11:01:01.519Z,992.16
2019-01-08T11:02:01.505Z,992.11
2019-01-08T11:03:01.491Z,992.11
2019-01-08T11:04:01.496Z,992.16
2019-01-08T11:05:01.469Z,992.10
2019-01-08T11:06:01.464Z,992.04
2019-01-08T11:07:01.447Z,992.04
2019-01-08T11:08:01.436Z,992.11
2019-01-08T11:09:01.435Z,991.93
2019-01-08T11:10:01.417Z,991.95
2019-01-08T11:11:01.407Z,991.96
2019-01-08T11:12:01.395Z,991.97
2019-01-08T11:13:01.388Z,992.06
2019-01-08T11:14:01.427Z,992.05
2019-01-08T11:15:01.369Z,992.01
2019-01-08T11:16:01.352Z,991.96
2019-01-08T11:17:01.346Z,991.97
2019-01-08T11:18:01.334Z,991.98
2019-01-08T11:19:01.327Z,991.93
2019-01-08T11:20:01.339Z,991.82
2019-01-08T11:21:01.315Z,991.91
2019-01-08T11:22:01.348Z,991.92
2019-01-08T11:23:01.301Z,991.91
2019-01-08T11:24:01.270Z,991.79
2019-01-08T11:25:01.358Z,991.80
2019-01-08T11:26:01.251Z,991.79
2019-01-08T11:27:01.242Z,991.89
2019-01-08T11:28:01.233Z,991.83
2019-01-08T11:29:01.215Z,991.73
2019-01-08T11:30:01.212Z,991.81
2019-01-08T11:31:01.206Z,991.73
2019-01-08T11:32:01.188Z,991.70
2019-01-08T11:33:01.209Z,991.67
2019-01-08T11:34:01.166Z,991.65
2019-01-08T11:35:01.154Z,991.65
2019-01-08T11:36:01.140Z,991.62
2019-01-08T11:37:01.128Z,991.66
2019-01-08T11:38:01.173Z,991.62
2019-01-08T11:39:01.139Z,991.63
2019-01-08T11:40:01.098Z,991.64
2019-01-08T11:41:01.109Z,991.50
2019-01-08T11:42:01.076Z,991.56
2019-01-08T11:43:01.067Z,991.50
2019-01-08T11:44:01.057Z,991.54
2019-01-08T11:45:01.058Z,991.49
2019-01-08T11:46:01.036Z,991.56
2019-01-08T11:47:01.020Z,991.47
2019-01-08T11:48:04.199Z,991.47
2019-01-08T11:49:01.004Z,991.49
2019-01-08T11:50:01.009Z,991.45
2019-01-08T11:51:00.983Z,991.45
2019-01-08T11:52:00.987Z,991.46
2019-01-08T11:53:00.960Z,991.35
2019-01-08T11:54:00.949Z,991.34
2019-01-08T11:55:00.941Z,991.36
2019-01-08T11:56:00.939Z,991.27
2019-01-08T11:57:00.913Z,991.34
2019-01-08T11:58:00.905Z,991.38
2019-01-08T11:59:00.893Z,991.27
2019-01-08T12:00:00.882Z,991.27
2019-01-08T12:01:00.929Z,991.37
2019-01-08T12:02:00.868Z,991.36
2019-01-08T12:03:00.850Z,991.38
2019-01-08T12:04:00.839Z,991.33
2019-01-08T12:05:00.834Z,991.27
2019-01-08T12:06:00.826Z,991.38
2019-01-08T12:07:00.820Z,991.33
2019-01-08T12:08:00.799Z,991.32
2019-01-08T12:09:00.795Z,991.41
2019-01-08T12:10:00.776Z,991.19
2019-01-08T12:11:00.771Z,991.30
2019-01-08T12:12:00.762Z,991.25
2019-01-08T12:13:00.745Z,991.09
2019-01-08T12:14:00.752Z,991.04
2019-01-08T12:15:00.725Z,991.15
2019-01-08T12:16:00.711Z,991.14
2019-01-08T12:17:00.713Z,991.13
2019-01-08T12:18:00.691Z,991.22
2019-01-08T12:19:00.681Z,991.26